createdAt,value
2018-11-28T00:00:32.377Z,113.50
2018-11-28T00:03:01.025Z,111.27
2018-11-28T00:05:29.518Z,109.73
2018-11-28T00:07:57.910Z,118.97
2018-11-28T00:10:27.138Z,111.70
2018-11-28T00:12:55.696Z,115.27
2018-11-28T00:15:23.984Z,110.50
2018-11-28T00:17:52.315Z,118.67
2018-11-28T00:20:22.843Z,122.23
2018-11-28T00:22:51.321Z,116.73
2018-11-28T00:25:20.197Z,122.10
2018-11-28T00:27:49.708Z,128.13
2018-11-28T00:30:18.877Z,121.93
2018-11-28T00:32:47.185Z,120.47
2018-11-28T00:35:16.972Z,121.63
2018-11-28T00:37:45.182Z,118.90
2018-11-28T00:40:16.214Z,124.80
2018-11-28T00:42:44.590Z,135.27
2018-11-28T00:45:13.388Z,131.67
2018-11-28T00:47:42.408Z,121.93
2018-11-28T00:50:11.313Z,125.43
2018-11-28T00:52:39.677Z,122.67
2018-11-28T00:55:10.186Z,127.40
2018-11-28T00:57:38.715Z,130.67
2018-11-28T01:00:14.204Z,128.63
2018-11-28T01:02:42.458Z,118.37
2018-11-28T01:05:11.396Z,141.13
2018-11-28T01:07:39.788Z,131.20
2018-11-28T01:10:09.085Z,138.83
2018-11-28T01:12:38.030Z,126.87
2018-11-28T01:15:14.593Z,112.77
2018-11-28T01:17:42.954Z,126.13
2018-11-28T01:20:11.724Z,135.03
2018-11-28T01:22:41.150Z,135.40
2018-11-28T01:25:10.111Z,127.60
2018-11-28T01:27:41.543Z,121.70
2018-11-28T01:30:12.945Z,133.23
2018-11-28T01:32:41.269Z,125.20
2018-11-28T01:35:11.891Z,113.87
2018-11-28T01:37:40.229Z,112.07
2018-11-28T01:40:09.735Z,121.67
2018-11-28T01:42:39.027Z,121.53
2018-11-28T01:45:08.905Z,125.40
2018-11-28T01:47:37.684Z,127.40
2018-11-28T01:50:07.205Z,125.30
2018-11-28T01:52:35.375Z,134.60
2018-11-28T01:55:04.043Z,128.73
2018-11-28T01:57:32.299Z,130.17
2018-11-28T02:00:00.678Z,130.70
2018-11-28T02:02:28.742Z,135.07
2018-11-28T02:04:57.361Z,129.53
2018-11-28T02:07:25.732Z,125.73
2018-11-28T02:09:53.995Z,123.33
2018-11-28T02:12:22.346Z,126.07
2018-11-28T02:14:50.633Z,126.03
2018-11-28T02:17:18.938Z,113.63
2018-11-28T02:19:47.212Z,122.23
2018-11-28T02:22:15.478Z,124.97
2018-11-28T02:24:43.684Z,110.57
2018-11-28T02:27:12.174Z,115.07
2018-11-28T02:29:40.397Z,97.03
2018-11-28T02:32:08.921Z,105.73
2018-11-28T02:34:37.432Z,95.87
2018-11-28T02:37:05.730Z,99.43
2018-11-28T02:39:34.116Z,99.63
2018-11-28T02:42:02.528Z,103.37
2018-11-28T02:44:30.796Z,96.93
2018-11-28T02:46:59.279Z,94.13
2018-11-28T02:49:27.616Z,97.07
2018-11-28T02:51:55.840Z,105.47
2018-11-28T02:54:24.742Z,88.40
2018-11-28T02:56:53.730Z,88.73
2018-11-28T02:59:22.057Z,96.33
2018-11-28T03:01:50.398Z,90.50
2018-11-28T03:04:20.755Z,95.63
2018-11-28T03:06:49.697Z,97.67
2018-11-28T03:09:18.084Z,93.33
2018-11-28T03:11:46.388Z,93.83
2018-11-28T03:14:14.618Z,96.83
2018-11-28T03:16:43.100Z,100.70
2018-11-28T03:19:12.557Z,95.17
2018-11-28T03:21:40.892Z,88.67
2018-11-28T03:24:10.179Z,95.90
2018-11-28T03:26:38.654Z,95.63
2018-11-28T03:29:07.054Z,101.47
2018-11-28T03:31:35.734Z,96.80
2018-11-28T03:34:04.112Z,85.33
2018-11-28T03:36:32.677Z,98.47
2018-11-28T03:39:01.162Z,92.40
2018-11-28T03:41:29.589Z,92.83
2018-11-28T03:43:58.248Z,94.63
2018-11-28T03:46:26.895Z,92.90
2018-11-28T03:48:55.151Z,96.57
2018-11-28T03:51:24.535Z,94.87
2018-11-28T03:53:53.273Z,94.40
2018-11-28T03:56:21.936Z,97.13
2018-11-28T03:58:51.362Z,93.97
2018-11-28T04:01:19.819Z,98.53
2018-11-28T04:03:49.367Z,97.80
2018-11-28T04:06:17.673Z,103.83
2018-11-28T04:08:45.979Z,105.17
2018-11-28T04:11:14.353Z,109.90
2018-11-28T04:13:42.826Z,101.53
2018-11-28T04:16:10.957Z,114.53
2018-11-28T04:18:39.656Z,110.97
2018-11-28T04:21:09.163Z,113.10
2018-11-28T04:23:38.009Z,101.70
2018-11-28T04:26:06.230Z,99.80
2018-11-28T04:28:35.667Z,103.93
2018-11-28T04:31:03.939Z,99.23
2018-11-28T04:33:32.089Z,87.00
2018-11-28T04:36:00.606Z,102.87
2018-11-28T04:38:29.523Z,100.17
2018-11-28T04:40:57.658Z,97.17
2018-11-28T04:43:26.068Z,105.43
2018-11-28T04:48:59.989Z,100.93
2018-11-28T04:51:28.187Z,103.13
2018-11-28T04:53:56.381Z,98.73
2018-11-28T04:56:24.520Z,105.67
2018-11-28T04:58:52.678Z,108.37
2018-11-28T05:01:22.145Z,104.13
2018-11-28T05:03:50.512Z,103.70
2018-11-28T05:07:28.079Z,113.80
2018-11-28T05:09:56.611Z,104.57
2018-11-28T05:12:25.399Z,121.97
2018-11-28T05:14:53.536Z,107.97
2018-11-28T05:17:21.862Z,102.73
2018-11-28T05:19:51.108Z,110.53
2018-11-28T05:22:20.849Z,108.57
2018-11-28T05:24:49.369Z,104.60
2018-11-28T05:27:17.633Z,107.17
2018-11-28T05:29:46.788Z,111.87
2018-11-28T05:32:15.179Z,109.57
2018-11-28T05:34:43.351Z,116.57
2018-11-28T05:37:11.856Z,117.60
2018-11-28T05:39:41.220Z,119.30
2018-11-28T05:42:10.488Z,115.73
2018-11-28T05:44:39.682Z,113.90
2018-11-28T05:47:08.380Z,125.00
2018-11-28T05:49:36.697Z,113.37
2018-11-28T05:52:04.999Z,127.67
2018-11-28T05:54:33.433Z,116.73
2018-11-28T05:57:01.747Z,114.63
2018-11-28T05:59:30.224Z,129.93
2018-11-28T06:01:59.611Z,134.90
2018-11-28T06:04:27.794Z,132.00
2018-11-28T06:06:58.221Z,131.37
2018-11-28T06:09:26.789Z,129.00
2018-11-28T06:11:55.493Z,127.80
2018-11-28T06:14:23.848Z,133.23
2018-11-28T06:16:52.227Z,131.07
2018-11-28T06:19:22.539Z,125.97
2018-11-28T06:21:51.026Z,129.47
2018-11-28T06:24:19.561Z,138.07
2018-11-28T06:26:47.907Z,131.30
2018-11-28T06:29:17.297Z,126.17
2018-11-28T06:31:46.992Z,130.17
2018-11-28T06:34:18.604Z,128.90
2018-11-28T06:39:51.694Z,128.67
2018-11-28T06:42:22.192Z,124.73
2018-11-28T06:45:05.302Z,128.87
2018-11-28T06:47:36.621Z,141.93
2018-11-28T06:50:11.061Z,127.87
2018-11-28T06:52:42.516Z,132.47
2018-11-28T06:55:20.179Z,136.57
2018-11-28T06:57:53.083Z,132.07
2018-11-28T07:00:22.834Z,134.60
2018-11-28T07:02:57.416Z,123.80
2018-11-28T07:05:28.621Z,129.13
2018-11-28T07:07:57.918Z,130.43
2018-11-28T07:10:33.298Z,126.97
2018-11-28T07:16:46.204Z,122.17
2018-11-28T07:19:15.921Z,118.00
2018-11-28T07:21:44.962Z,118.70
2018-11-28T07:24:13.346Z,124.53
2018-11-28T07:26:41.932Z,121.00
2018-11-28T07:29:11.152Z,117.70
2018-11-28T07:31:41.473Z,121.80
2018-11-28T07:34:10.701Z,118.00
2018-11-28T07:36:39.788Z,103.80
2018-11-28T07:39:08.339Z,105.93
2018-11-28T07:41:44.355Z,103.57
2018-11-28T07:44:21.431Z,103.70
2018-11-28T07:46:52.313Z,97.40
2018-11-28T07:49:22.027Z,101.43
2018-11-28T08:09:17.956Z,78.73
2018-11-28T08:11:46.126Z,81.90
2018-11-28T08:16:49.247Z,76.20
2018-11-28T08:19:17.612Z,84.70
2018-11-28T08:21:45.897Z,92.60
2018-11-28T08:24:14.218Z,84.43
2018-11-28T08:26:42.623Z,82.57
2018-11-28T08:29:11.781Z,85.83
2018-11-28T08:31:40.369Z,82.00
2018-11-28T08:34:08.844Z,85.83
2018-11-28T08:36:37.097Z,85.90
2018-11-28T08:39:06.277Z,92.90
2018-11-28T08:41:34.965Z,81.00
2018-11-28T08:44:03.200Z,90.17
2018-11-28T08:46:34.746Z,80.07
2018-11-28T08:49:03.034Z,71.00
2018-11-28T08:51:32.306Z,74.50
2018-11-28T08:54:00.773Z,76.33
2018-11-28T08:56:45.784Z,72.63
2018-11-28T08:59:18.040Z,75.90
2018-11-28T09:08:31.589Z,67.40
2018-11-28T09:11:00.626Z,59.37
2018-11-28T09:13:42.551Z,70.00
2018-11-28T09:22:58.033Z,72.23
2018-11-28T09:25:35.253Z,74.17
2018-11-28T09:28:09.999Z,66.67
2018-11-28T09:31:19.472Z,68.77
2018-11-28T09:42:18.064Z,61.20
2018-11-28T09:44:58.825Z,58.07
2018-11-28T09:47:27.267Z,57.73
2018-11-28T09:49:56.125Z,61.63
2018-11-28T09:52:24.453Z,64.53
2018-11-28T09:54:52.960Z,60.77
2018-11-28T09:57:21.165Z,59.63
2018-11-28T09:59:49.367Z,64.70
2018-11-28T10:02:17.720Z,62.63
2018-11-28T10:04:46.559Z,58.67
2018-11-28T10:07:14.913Z,61.97
2018-11-28T10:09:43.321Z,64.40
2018-11-28T10:12:11.428Z,59.50
2018-11-28T10:14:39.656Z,59.03
2018-11-28T10:17:07.881Z,58.10
2018-11-28T10:19:36.007Z,61.53
2018-11-28T10:22:04.647Z,55.27
2018-11-28T10:24:32.820Z,56.40
2018-11-28T10:27:01.044Z,55.27
2018-11-28T10:29:29.324Z,59.80
2018-11-28T10:31:57.760Z,64.63
2018-11-28T10:34:29.480Z,62.90
2018-11-28T10:36:57.572Z,52.63
2018-11-28T10:39:30.285Z,65.20
2018-11-28T10:42:01.121Z,59.77
2018-11-28T10:44:29.391Z,68.40
2018-11-28T10:46:57.476Z,72.60
2018-11-28T10:49:25.666Z,62.17
2018-11-28T10:51:55.680Z,58.90
2018-11-28T10:54:23.862Z,57.17
2018-11-28T10:56:51.911Z,50.67
2018-11-28T10:59:19.983Z,45.37
2018-11-28T11:01:51.977Z,43.50
2018-11-28T11:04:24.475Z,53.43
2018-11-28T11:06:59.059Z,45.27
2018-11-28T11:09:32.813Z,47.80
2018-11-28T11:12:06.841Z,43.27
2018-11-28T11:14:40.212Z,44.70
2018-11-28T11:17:09.862Z,41.10
2018-11-28T11:19:38.114Z,38.23
2018-11-28T11:22:06.255Z,37.77
2018-11-28T11:24:34.431Z,33.13
2018-11-28T11:27:02.602Z,28.63
2018-11-28T11:29:30.789Z,30.40
2018-11-28T11:31:59.016Z,35.43
2018-11-28T11:34:28.542Z,38.73
2018-11-28T11:36:56.919Z,38.07
2018-11-28T11:39:25.560Z,37.10
2018-11-28T11:41:53.792Z,30.30
2018-11-28T11:44:26.793Z,29.70
2018-11-28T11:46:58.874Z,37.47
2018-11-28T11:49:28.371Z,43.00
2018-11-28T11:51:56.576Z,33.57
2018-11-28T11:54:25.286Z,37.43
2018-11-28T11:56:53.403Z,37.03
2018-11-28T11:59:21.749Z,31.77
2018-11-28T12:01:54.750Z,30.93
2018-11-28T12:04:17.901Z,31.93
2018-11-28T12:06:46.000Z,24.50
2018-11-28T12:09:14.181Z,27.77
2018-11-28T12:11:42.309Z,26.73
2018-11-28T12:14:10.410Z,28.27
2018-11-28T12:16:38.598Z,32.57
2018-11-28T12:19:06.721Z,26.20
2018-11-28T12:21:34.780Z,30.67
2018-11-28T12:24:02.898Z,31.03
2018-11-28T12:26:30.993Z,24.50
2018-11-28T12:28:59.165Z,24.67
2018-11-28T12:31:27.266Z,22.67
2018-11-28T12:33:55.406Z,29.73
2018-11-28T12:36:23.545Z,29.13
2018-11-28T12:38:52.886Z,31.50
2018-11-28T12:41:21.641Z,39.60
2018-11-28T12:43:49.790Z,36.50
2018-11-28T12:46:17.981Z,40.97
2018-11-28T12:48:46.424Z,43.63
2018-11-28T12:51:14.774Z,48.87
2018-11-28T12:53:44.008Z,42.23
2018-11-28T12:56:13.842Z,37.47
2018-11-28T12:58:42.065Z,34.50
2018-11-28T13:01:10.381Z,28.60
2018-11-28T13:03:38.439Z,35.63
2018-11-28T13:06:06.505Z,31.57
2018-11-28T13:08:34.756Z,31.43
2018-11-28T13:11:02.885Z,30.83
2018-11-28T13:13:31.267Z,33.17
2018-11-28T13:15:59.431Z,32.57
2018-11-28T13:18:27.585Z,36.33
2018-11-28T13:20:56.169Z,33.87
2018-11-28T13:23:24.330Z,33.60
2018-11-28T13:25:52.611Z,36.77
2018-11-28T13:28:20.752Z,31.83
2018-11-28T13:30:50.106Z,36.00
2018-11-28T13:33:18.218Z,39.00
2018-11-28T13:35:47.505Z,35.20
2018-11-28T13:40:50.525Z,42.93
2018-11-28T13:43:18.753Z,39.00
2018-11-28T13:45:47.514Z,39.13
2018-11-28T13:48:16.253Z,41.50
2018-11-28T13:52:19.797Z,42.23
2018-11-28T13:55:37.405Z,38.43
2018-11-28T13:57:16.254Z,43.77
2018-11-28T13:59:44.651Z,37.53
2018-11-28T14:02:13.186Z,41.87
2018-11-28T14:04:41.288Z,44.10
2018-11-28T14:07:15.834Z,45.43
2018-11-28T14:09:43.958Z,48.13
2018-11-28T14:12:12.917Z,41.93
2018-11-28T14:14:41.098Z,42.10
2018-11-28T14:17:09.181Z,45.90
2018-11-28T14:19:39.004Z,50.80
2018-11-28T14:22:07.108Z,45.30
2018-11-28T14:24:35.172Z,51.70
2018-11-28T14:27:03.363Z,44.43
2018-11-28T14:29:31.600Z,41.33
2018-11-28T14:31:59.826Z,44.93
2018-11-28T14:34:28.027Z,43.90
2018-11-28T14:36:57.005Z,54.87
2018-11-28T14:39:25.081Z,66.80
2018-11-28T14:41:53.190Z,63.50
2018-11-28T14:44:21.357Z,61.10
2018-11-28T14:46:49.421Z,68.20
2018-11-28T14:49:17.525Z,71.03
2018-11-28T14:51:45.825Z,77.73
2018-11-28T14:54:13.915Z,87.63
2018-11-28T14:56:41.988Z,86.83
2018-11-28T14:59:10.325Z,89.73
2018-11-28T15:01:38.775Z,93.43
2018-11-28T15:04:06.844Z,91.57
2018-11-28T15:06:44.672Z,77.87
2018-11-28T15:09:18.158Z,87.40
2018-11-28T15:11:46.224Z,68.30
2018-11-28T15:14:14.565Z,63.73
2018-11-28T15:16:42.698Z,64.20
2018-11-28T15:19:10.811Z,72.90
2018-11-28T15:21:39.171Z,89.97
2018-11-28T15:24:08.262Z,112.53
2018-11-28T15:26:36.412Z,131.73
2018-11-28T15:29:04.785Z,151.03
2018-11-28T15:31:33.143Z,125.20
2018-11-28T15:34:01.291Z,113.20
2018-11-28T15:36:29.376Z,115.87
2018-11-28T15:38:57.471Z,165.77
2018-11-28T15:41:26.060Z,159.63
2018-11-28T15:43:54.191Z,124.47
2018-11-28T15:46:22.299Z,100.87
2018-11-28T15:48:50.788Z,91.73
2018-11-28T15:51:18.861Z,86.33
2018-11-28T15:53:46.960Z,90.33
2018-11-28T15:56:15.077Z,75.07
2018-11-28T15:58:43.177Z,74.30
2018-11-28T16:01:11.321Z,70.80
2018-11-28T16:03:40.030Z,68.13
2018-11-28T16:06:08.188Z,76.27
2018-11-28T16:08:37.817Z,73.53
2018-11-28T16:11:14.235Z,88.13
2018-11-28T16:13:42.360Z,91.17
2018-11-28T16:16:10.545Z,80.57
2018-11-28T16:18:38.959Z,85.00
2018-11-28T16:21:13.568Z,91.47
2018-11-28T16:23:41.790Z,90.93
2018-11-28T16:26:12.208Z,88.73
2018-11-28T16:28:40.351Z,77.87
2018-11-28T16:31:08.436Z,79.50
2018-11-28T16:33:36.578Z,71.30
2018-11-28T16:36:04.913Z,82.07
2018-11-28T16:38:32.985Z,112.57
2018-11-28T16:41:01.129Z,113.37
2018-11-28T16:43:29.554Z,104.67
2018-11-28T16:45:57.630Z,104.47
2018-11-28T16:48:25.694Z,102.73
2018-11-28T16:50:53.776Z,101.27
2018-11-28T16:55:56.679Z,100.87
2018-11-28T16:58:24.759Z,115.90
2018-11-28T17:00:52.875Z,113.07
2018-11-28T17:03:21.014Z,115.67
2018-11-28T17:05:49.160Z,109.00
2018-11-28T17:08:17.310Z,125.27
2018-11-28T17:10:45.431Z,129.73
2018-11-28T17:13:13.562Z,139.43
2018-11-28T17:15:41.755Z,125.07
2018-11-28T17:18:09.889Z,125.70
2018-11-28T17:20:39.747Z,109.53
2018-11-28T17:23:07.887Z,116.23
2018-11-28T17:25:36.052Z,119.43
2018-11-28T17:28:04.200Z,117.20
2018-11-28T17:30:32.509Z,124.00
2018-11-28T17:33:00.683Z,116.63
2018-11-28T17:35:28.839Z,123.33
2018-11-28T17:37:57.239Z,137.17
2018-11-28T17:40:26.009Z,118.53
2018-11-28T17:42:54.727Z,124.33
2018-11-28T17:45:22.944Z,124.17
2018-11-28T17:47:51.048Z,125.20
2018-11-28T17:50:19.778Z,142.80
2018-11-28T17:52:52.064Z,134.00
2018-11-28T17:55:20.208Z,149.57
2018-11-28T17:57:48.304Z,147.30
2018-11-28T18:00:17.945Z,140.77
2018-11-28T18:02:46.060Z,149.33
2018-11-28T18:05:14.166Z,153.47
2018-11-28T18:07:42.984Z,150.40
2018-11-28T18:10:12.849Z,141.33
2018-11-28T18:12:46.498Z,162.13
2018-11-28T18:15:14.596Z,157.07
2018-11-28T18:17:42.775Z,155.33
2018-11-28T18:20:10.857Z,148.20
2018-11-28T18:22:39.040Z,151.87
2018-11-28T18:25:08.377Z,150.43
2018-11-28T18:27:36.521Z,149.93
2018-11-28T18:30:05.534Z,141.80
2018-11-28T18:32:34.642Z,148.90
2018-11-28T18:35:02.757Z,140.47
2018-11-28T18:37:31.073Z,134.70
2018-11-28T18:39:59.178Z,130.13
2018-11-28T18:42:27.292Z,137.87
2018-11-28T18:44:55.444Z,137.67
2018-11-28T18:47:24.041Z,133.93
2018-11-28T18:49:52.168Z,117.40
2018-11-28T18:52:21.526Z,126.37
2018-11-28T18:54:55.048Z,128.30
2018-11-28T18:57:23.282Z,123.37
2018-11-28T18:59:51.520Z,137.67
2018-11-28T19:02:19.644Z,129.60
2018-11-28T19:04:47.759Z,140.10
2018-11-28T19:07:15.827Z,133.50
2018-11-28T19:09:49.676Z,129.53
2018-11-28T19:12:18.111Z,132.87
2018-11-28T19:14:46.417Z,128.67
2018-11-28T19:17:14.364Z,129.60
2018-11-28T19:19:42.444Z,136.73
2018-11-28T19:22:10.829Z,131.43
2018-11-28T19:24:39.316Z,130.47
2018-11-28T19:27:07.496Z,131.53
2018-11-28T19:29:35.661Z,128.40
2018-11-28T19:32:03.770Z,125.43
2018-11-28T19:34:31.825Z,144.23
2018-11-28T19:37:00.156Z,134.83
2018-11-28T19:39:28.241Z,149.80
2018-11-28T19:41:59.956Z,143.33
2018-11-28T19:44:28.145Z,144.40
2018-11-28T19:46:56.230Z,135.90
2018-11-28T19:49:24.381Z,139.90
2018-11-28T19:51:52.490Z,132.80
2018-11-28T19:54:20.562Z,135.50
2018-11-28T19:56:48.691Z,130.47
2018-11-28T19:59:16.828Z,137.90
2018-11-28T20:01:44.928Z,129.23
2018-11-28T20:04:13.028Z,126.30
2018-11-28T20:06:41.161Z,125.03
2018-11-28T20:09:14.521Z,123.30
2018-11-28T20:11:42.618Z,124.87
2018-11-28T20:14:10.693Z,133.67
2018-11-28T20:16:38.770Z,130.20
2018-11-28T20:19:06.845Z,137.50
2018-11-28T20:21:34.925Z,119.03
2018-11-28T20:24:03.047Z,122.77
2018-11-28T20:26:31.179Z,122.63
2018-11-28T20:28:59.337Z,126.10
2018-11-28T20:31:27.453Z,129.10
2018-11-28T20:33:55.591Z,131.37
2018-11-28T20:36:23.682Z,126.80
2018-11-28T20:38:52.008Z,132.87
2018-11-28T20:41:20.125Z,138.63
2018-11-28T20:43:48.196Z,139.40
2018-11-28T20:46:16.463Z,146.60
2018-11-28T20:48:44.573Z,135.60
2018-11-28T20:51:12.704Z,124.20
2018-11-28T20:53:41.512Z,121.00
2018-11-28T20:56:09.665Z,121.13
2018-11-28T20:58:37.804Z,129.63
2018-11-28T21:01:05.945Z,129.57
2018-11-28T21:03:34.313Z,126.80
2018-11-28T21:06:02.423Z,128.10
2018-11-28T21:08:30.565Z,140.37
2018-11-28T21:10:58.697Z,134.90
2018-11-28T21:13:26.769Z,136.30
2018-11-28T21:15:54.901Z,149.13
2018-11-28T21:18:23.036Z,137.10
2018-11-28T21:20:51.162Z,138.03
2018-11-28T21:23:19.573Z,139.23
2018-11-28T21:25:47.996Z,139.17
2018-11-28T21:28:16.106Z,138.17
2018-11-28T21:30:44.357Z,138.50
2018-11-28T21:33:14.780Z,133.63
2018-11-28T21:35:43.953Z,141.17
2018-11-28T21:38:12.020Z,149.47
2018-11-28T21:40:40.322Z,142.03
2018-11-28T21:43:08.383Z,136.77
2018-11-28T21:45:36.452Z,136.87
2018-11-28T21:48:04.558Z,142.40
2018-11-28T21:50:32.693Z,140.03
2018-11-28T21:53:00.810Z,135.60
2018-11-28T21:55:29.232Z,166.60
2018-11-28T21:57:57.341Z,167.77
2018-11-28T22:00:25.824Z,185.77
2018-11-28T22:02:53.950Z,185.60
2018-11-28T22:05:22.291Z,182.87
2018-11-28T22:07:50.417Z,169.33
2018-11-28T22:10:18.964Z,187.37
2018-11-28T22:12:47.181Z,168.90
2018-11-28T22:15:15.710Z,175.60
2018-11-28T22:17:44.423Z,154.97
2018-11-28T22:20:13.097Z,164.37
2018-11-28T22:22:41.205Z,166.77
2018-11-28T22:25:15.212Z,159.53
2018-11-28T22:27:42.352Z,167.57
2018-11-28T22:30:11.104Z,164.03
2018-11-28T22:32:39.187Z,153.90
2018-11-28T22:35:07.348Z,157.47
2018-11-28T22:37:35.478Z,156.60
2018-11-28T22:40:04.175Z,162.57
2018-11-28T22:42:32.274Z,155.70
2018-11-28T22:45:00.368Z,144.37
2018-11-28T22:47:28.476Z,139.00
2018-11-28T22:49:56.528Z,137.47
2018-11-28T22:52:24.637Z,140.80
2018-11-28T22:54:52.732Z,139.87
2018-11-28T22:57:20.793Z,136.23
2018-11-28T22:59:48.847Z,134.37
2018-11-28T23:03:20.205Z,147.80
2018-11-28T23:05:49.828Z,149.67
2018-11-28T23:08:18.341Z,152.13
2018-11-28T23:10:46.951Z,161.90
2018-11-28T23:13:15.701Z,146.10
2018-11-28T23:15:44.604Z,143.17
2018-11-28T23:18:12.672Z,141.53
2018-11-28T23:20:40.770Z,133.43
2018-11-28T23:23:09.039Z,143.97
2018-11-28T23:25:37.410Z,151.00
2018-11-28T23:28:05.881Z,145.27
2018-11-28T23:30:33.972Z,142.07
2018-11-28T23:33:02.438Z,138.37
2018-11-28T23:35:30.581Z,143.87
2018-11-28T23:37:58.667Z,146.00
2018-11-28T23:40:26.782Z,139.60
2018-11-28T23:42:55.261Z,140.90
2018-11-28T23:45:23.531Z,155.17
2018-11-28T23:47:51.694Z,154.70
2018-11-28T23:50:22.395Z,151.83
2018-11-28T23:52:50.938Z,143.00
2018-11-28T23:55:19.508Z,150.27
2018-11-28T23:57:47.856Z,142.77
